createdAt,value
2018-12-14T00:01:42.251Z,21.17
2018-12-14T00:04:10.375Z,27.00
2018-12-14T00:06:38.466Z,24.10
2018-12-14T00:09:06.543Z,25.37
2018-12-14T00:11:34.730Z,26.45
2018-12-14T00:14:02.838Z,25.50
2018-12-14T00:16:30.920Z,22.80
2018-12-14T00:18:59.016Z,23.35
2018-12-14T00:21:27.129Z,24.37
2018-12-14T00:23:55.247Z,25.70
2018-12-14T00:26:23.356Z,23.30
2018-12-14T00:28:51.486Z,24.65
2018-12-14T00:31:19.597Z,23.87
2018-12-14T00:33:47.736Z,24.47
2018-12-14T00:36:15.843Z,25.72
2018-12-14T00:38:43.988Z,22.73
2018-12-14T00:41:12.165Z,23.95
2018-12-14T00:43:40.225Z,25.23
2018-12-14T00:46:08.364Z,26.40
2018-12-14T00:48:36.851Z,20.82
2018-12-14T00:51:04.975Z,22.80
2018-12-14T00:53:33.104Z,23.60
2018-12-14T00:56:01.212Z,25.48
2018-12-14T00:58:29.332Z,23.52
2018-12-14T01:00:57.434Z,23.20
2018-12-14T01:03:25.565Z,21.65
2018-12-14T01:05:53.642Z,23.38
2018-12-14T01:08:21.718Z,24.77
2018-12-14T01:10:49.780Z,24.60
2018-12-14T01:13:17.902Z,22.90
2018-12-14T01:15:46.113Z,22.52
2018-12-14T01:18:14.239Z,23.27
2018-12-14T01:20:42.312Z,20.77
2018-12-14T01:23:10.419Z,21.87
2018-12-14T01:25:38.501Z,22.45
2018-12-14T01:28:06.598Z,22.07
2018-12-14T01:30:34.666Z,21.20
2018-12-14T01:33:02.730Z,22.40
2018-12-14T01:35:30.846Z,23.35
2018-12-14T01:37:58.937Z,24.77
2018-12-14T01:40:27.054Z,23.12
2018-12-14T01:42:55.174Z,22.07
2018-12-14T01:45:23.292Z,25.40
2018-12-14T01:47:51.367Z,26.75
2018-12-14T01:50:19.508Z,25.12
2018-12-14T01:52:47.640Z,22.00
2018-12-14T01:55:15.910Z,24.30
2018-12-14T01:57:44.048Z,25.20
2018-12-14T02:00:12.188Z,24.92
2018-12-14T02:02:40.305Z,22.37
2018-12-14T02:05:08.400Z,23.80
2018-12-14T02:07:36.562Z,22.52
2018-12-14T02:10:04.705Z,27.60
2018-12-14T02:12:32.807Z,23.60
2018-12-14T02:15:00.890Z,24.77
2018-12-14T02:17:29.022Z,21.33
2018-12-14T02:19:57.155Z,23.67
2018-12-14T02:22:25.254Z,22.85
2018-12-14T02:24:53.341Z,20.65
2018-12-14T02:27:21.475Z,21.95
2018-12-14T02:29:49.557Z,23.18
2018-12-14T02:32:17.679Z,24.98
2018-12-14T02:34:45.831Z,21.68
2018-12-14T02:37:14.044Z,23.45
2018-12-14T02:39:42.172Z,21.05
2018-12-14T02:42:10.252Z,23.25
2018-12-14T02:44:38.366Z,21.00
2018-12-14T02:47:06.508Z,21.77
2018-12-14T02:49:34.662Z,24.40
2018-12-14T02:52:02.808Z,21.82
2018-12-14T02:54:30.931Z,19.60
2018-12-14T02:56:59.037Z,22.58
2018-12-14T02:59:27.303Z,19.07
2018-12-14T03:01:55.367Z,19.50
2018-12-14T03:04:23.485Z,21.30
2018-12-14T03:06:51.566Z,24.67
2018-12-14T03:09:19.684Z,19.32
2018-12-14T03:11:47.793Z,20.20
2018-12-14T03:14:15.891Z,22.52
2018-12-14T03:16:43.990Z,23.62
2018-12-14T03:19:12.149Z,21.62
2018-12-14T03:21:40.226Z,19.40
2018-12-14T03:24:08.338Z,19.32
2018-12-14T03:26:36.453Z,18.32
2018-12-14T03:29:04.594Z,21.35
2018-12-14T03:31:32.664Z,17.75
2018-12-14T03:34:00.782Z,20.23
2018-12-14T03:36:28.911Z,18.50
2018-12-14T03:38:56.991Z,19.57
2018-12-14T03:41:25.085Z,22.50
2018-12-14T03:43:53.187Z,20.40
2018-12-14T03:46:21.280Z,19.87
2018-12-14T03:48:49.406Z,20.00
2018-12-14T03:51:19.628Z,22.50
2018-12-14T03:53:47.758Z,21.70
2018-12-14T03:56:15.859Z,19.32
2018-12-14T03:58:43.987Z,21.35
2018-12-14T04:01:12.060Z,19.82
2018-12-14T04:03:40.202Z,17.98
2018-12-14T04:06:08.397Z,20.65
2018-12-14T04:08:36.520Z,20.40
2018-12-14T04:11:04.746Z,17.30
2018-12-14T04:13:32.928Z,16.30
2018-12-14T04:16:01.044Z,18.90
2018-12-14T04:18:29.133Z,18.75
2018-12-14T04:20:57.251Z,19.40
2018-12-14T04:23:25.346Z,15.93
2018-12-14T04:25:53.431Z,21.17
2018-12-14T04:28:21.561Z,17.23
2018-12-14T04:30:49.653Z,17.20
2018-12-14T04:33:17.857Z,19.82
2018-12-14T04:35:46.030Z,17.42
2018-12-14T04:38:14.185Z,21.40
2018-12-14T04:40:42.284Z,19.30
2018-12-14T04:43:10.364Z,20.30
2018-12-14T04:45:38.487Z,17.00
2018-12-14T04:48:06.571Z,16.48
2018-12-14T04:50:34.710Z,22.40
2018-12-14T04:53:02.855Z,20.72
2018-12-14T04:55:30.953Z,20.48
2018-12-14T04:57:59.059Z,19.52
2018-12-14T05:00:27.183Z,20.27
2018-12-14T05:02:55.260Z,22.17
2018-12-14T05:05:23.387Z,19.42
2018-12-14T05:07:51.457Z,16.80
2018-12-14T05:10:19.517Z,19.67
2018-12-14T05:12:47.604Z,18.65
2018-12-14T05:15:15.685Z,19.80
2018-12-14T05:17:43.841Z,21.30
2018-12-14T05:20:11.942Z,22.45
2018-12-14T05:22:40.058Z,20.20
2018-12-14T05:25:08.152Z,21.62
2018-12-14T05:27:36.311Z,17.98
2018-12-14T05:30:05.602Z,19.15
2018-12-14T05:32:33.684Z,19.02
2018-12-14T05:35:01.827Z,17.95
2018-12-14T05:37:30.075Z,22.00
2018-12-14T05:39:58.223Z,22.32
2018-12-14T05:42:26.334Z,22.02
2018-12-14T05:44:54.552Z,22.52
2018-12-14T05:47:22.729Z,21.10
2018-12-14T05:49:50.913Z,22.30
2018-12-14T05:52:19.021Z,20.77
2018-12-14T05:54:47.103Z,25.25
2018-12-14T05:57:15.251Z,22.87
2018-12-14T05:59:43.378Z,21.50
2018-12-14T06:02:11.483Z,21.25
2018-12-14T06:04:39.556Z,22.77
2018-12-14T06:07:07.692Z,20.25
2018-12-14T06:09:35.877Z,17.98
2018-12-14T06:12:04.177Z,20.20
2018-12-14T06:14:32.301Z,19.15
2018-12-14T06:17:00.440Z,22.07
2018-12-14T06:19:28.519Z,18.82
2018-12-14T06:21:56.865Z,18.05
2018-12-14T06:24:25.028Z,21.33
2018-12-14T06:26:53.235Z,17.55
2018-12-14T06:29:21.331Z,18.73
2018-12-14T06:31:49.471Z,17.87
2018-12-14T06:34:17.610Z,17.60
2018-12-14T06:36:45.798Z,16.87
2018-12-14T06:39:14.465Z,17.17
2018-12-14T06:41:42.862Z,18.25
2018-12-14T06:44:10.995Z,16.93
2018-12-14T06:46:39.075Z,19.73
2018-12-14T06:49:07.385Z,17.57
2018-12-14T06:51:35.492Z,17.23
2018-12-14T06:54:03.648Z,16.67
2018-12-14T06:56:31.875Z,19.62
2018-12-14T06:59:00.055Z,16.67
2018-12-14T07:01:28.281Z,18.37
2018-12-14T07:03:56.439Z,14.40
2018-12-14T07:06:24.625Z,14.75
2018-12-14T07:08:52.743Z,17.90
2018-12-14T07:11:20.827Z,15.58
2018-12-14T07:13:49.133Z,14.23
2018-12-14T07:16:19.024Z,17.67
2018-12-14T07:18:47.401Z,17.85
2018-12-14T07:21:15.486Z,16.90
2018-12-14T07:23:43.637Z,16.97
2018-12-14T07:26:11.800Z,18.87
2018-12-14T07:28:39.908Z,18.52
2018-12-14T07:31:08.078Z,18.55
2018-12-14T07:33:36.169Z,17.87
2018-12-14T07:36:04.252Z,18.87
2018-12-14T07:38:32.412Z,17.92
2018-12-14T07:41:01.381Z,17.17
2018-12-14T07:43:29.533Z,16.30
2018-12-14T07:45:57.723Z,15.35
2018-12-14T07:48:25.796Z,18.62
2018-12-14T07:50:53.998Z,17.75
2018-12-14T07:53:22.146Z,15.98
2018-12-14T07:55:50.290Z,17.02
2018-12-14T07:58:18.406Z,16.62
2018-12-14T08:00:46.478Z,15.32
2018-12-14T08:03:14.658Z,16.37
2018-12-14T08:05:42.837Z,15.65
2018-12-14T08:08:10.911Z,16.90
2018-12-14T08:10:39.015Z,18.90
2018-12-14T08:13:07.202Z,18.85
2018-12-14T08:15:35.329Z,19.02
2018-12-14T08:18:03.458Z,16.57
2018-12-14T08:20:31.534Z,15.08
2018-12-14T08:22:59.754Z,16.90
2018-12-14T08:25:27.849Z,15.08
2018-12-14T08:27:56.009Z,17.80
2018-12-14T08:30:24.249Z,15.28
2018-12-14T08:32:52.316Z,15.75
2018-12-14T08:35:20.855Z,15.30
2018-12-14T08:37:49.000Z,14.60
2018-12-14T08:40:17.182Z,13.98
2018-12-14T08:42:46.164Z,15.70
2018-12-14T08:45:14.293Z,16.17
2018-12-14T08:47:42.590Z,17.62
2018-12-14T08:50:10.940Z,17.82
2018-12-14T08:52:39.079Z,16.40
2018-12-14T08:55:07.180Z,18.12
2018-12-14T08:57:35.475Z,17.82
2018-12-14T09:00:03.953Z,16.70
2018-12-14T09:02:32.027Z,16.00
2018-12-14T09:05:00.211Z,17.27
2018-12-14T09:07:28.398Z,19.50
2018-12-14T09:09:56.546Z,21.23
2018-12-14T09:12:24.692Z,18.15
2018-12-14T09:14:52.783Z,17.50
2018-12-14T09:17:20.934Z,16.67
2018-12-14T09:43:28.711Z,16.75
2018-12-14T09:45:57.132Z,19.55
2018-12-14T09:48:25.326Z,18.75
2018-12-14T09:50:53.544Z,16.23
2018-12-14T09:53:21.910Z,15.58
2018-12-14T09:55:50.240Z,19.95
2018-12-14T09:58:18.421Z,14.65
2018-12-14T10:00:46.700Z,14.10
2018-12-14T10:03:14.995Z,16.52
2018-12-14T10:05:43.135Z,15.75
2018-12-14T10:08:11.597Z,14.35
2018-12-14T10:10:40.302Z,18.77
2018-12-14T10:13:08.687Z,15.43
2018-12-14T10:15:36.872Z,15.68
2018-12-14T10:18:05.016Z,16.85
2018-12-14T10:20:33.263Z,15.48
2018-12-14T10:23:01.444Z,14.68
2018-12-14T10:25:29.612Z,19.52
2018-12-14T10:27:57.801Z,16.05
2018-12-14T10:30:26.090Z,15.43
2018-12-14T10:32:54.355Z,18.17
2018-12-14T10:35:22.623Z,18.17
2018-12-14T10:37:50.837Z,18.25
2018-12-14T10:40:19.021Z,17.12
2018-12-14T10:42:47.397Z,16.73
2018-12-14T10:45:15.691Z,15.88
2018-12-14T10:47:44.020Z,16.80
2018-12-14T10:50:12.293Z,16.82
2018-12-14T10:52:40.576Z,14.93
2018-12-14T10:55:08.923Z,15.43
2018-12-14T10:57:37.443Z,15.18
2018-12-14T11:00:07.957Z,14.68
2018-12-14T11:02:36.131Z,14.87
2018-12-14T11:05:04.585Z,17.50
2018-12-14T11:07:32.691Z,17.12
2018-12-14T11:10:00.998Z,16.15
2018-12-14T11:12:29.301Z,15.03
2018-12-14T11:14:57.560Z,19.48
2018-12-14T11:17:25.847Z,17.07
2018-12-14T11:19:54.005Z,19.80
2018-12-14T11:22:22.153Z,19.05
2018-12-14T11:24:50.292Z,16.17
2018-12-14T11:27:18.476Z,18.32
2018-12-14T11:29:46.713Z,17.85
2018-12-14T11:32:15.135Z,15.95
2018-12-14T11:34:43.322Z,17.73
2018-12-14T11:37:11.540Z,15.85
2018-12-14T11:39:39.732Z,16.80
2018-12-14T11:42:07.927Z,17.40
2018-12-14T11:44:36.110Z,18.70
2018-12-14T11:47:04.383Z,16.55
2018-12-14T11:49:32.536Z,14.63
2018-12-14T11:52:00.795Z,17.40
2018-12-14T11:54:28.955Z,15.63
2018-12-14T11:56:57.163Z,20.10
2018-12-14T11:59:25.387Z,16.42
2018-12-14T12:01:53.560Z,17.25
2018-12-14T12:04:21.743Z,16.75
2018-12-14T12:06:49.944Z,14.73
2018-12-14T12:09:18.093Z,18.10
2018-12-14T12:11:46.260Z,17.32
2018-12-14T12:14:14.695Z,19.42
2018-12-14T12:16:43.006Z,17.95
2018-12-14T12:19:20.939Z,14.70
2018-12-14T12:21:49.253Z,16.80
2018-12-14T12:24:17.436Z,13.68
2018-12-14T12:26:45.685Z,14.80
2018-12-14T12:29:13.869Z,13.08
2018-12-14T12:31:43.155Z,16.15
2018-12-14T12:34:11.338Z,17.65
2018-12-14T12:36:39.665Z,17.87
2018-12-14T12:39:07.851Z,14.98
2018-12-14T12:41:36.000Z,13.93
2018-12-14T12:44:04.200Z,16.93
2018-12-14T12:46:32.402Z,14.80
2018-12-14T12:49:00.626Z,16.55
2018-12-14T12:51:28.955Z,16.57
2018-12-14T12:53:57.158Z,14.63
2018-12-14T12:56:25.653Z,16.30
2018-12-14T12:58:54.510Z,16.57
2018-12-14T13:01:22.853Z,17.62
2018-12-14T13:03:51.038Z,17.80
2018-12-14T13:06:19.275Z,17.27
2018-12-14T13:08:47.444Z,17.67
2018-12-14T13:11:15.667Z,15.23
2018-12-14T13:13:43.844Z,14.18
2018-12-14T13:16:12.090Z,15.83
2018-12-14T13:18:40.290Z,13.68
2018-12-14T13:21:08.488Z,15.70
2018-12-14T13:23:36.738Z,15.55
2018-12-14T13:26:04.917Z,13.35
2018-12-14T13:28:33.264Z,13.90
2018-12-14T13:31:01.497Z,15.00
2018-12-14T13:33:29.744Z,14.55
2018-12-14T13:35:57.975Z,17.42
2018-12-14T13:38:26.236Z,14.10
2018-12-14T13:40:54.413Z,16.52
2018-12-14T13:43:22.672Z,15.63
2018-12-14T13:45:52.987Z,15.60
2018-12-14T13:48:21.414Z,17.73
2018-12-14T13:50:49.602Z,15.08
2018-12-14T13:53:17.816Z,16.07
2018-12-14T13:55:45.956Z,14.87
2018-12-14T14:01:03.904Z,14.90
2018-12-14T14:03:32.051Z,16.17
2018-12-14T14:06:00.319Z,13.75
2018-12-14T14:08:28.505Z,15.70
2018-12-14T14:10:56.639Z,15.43
2018-12-14T14:13:24.826Z,15.68
2018-12-14T14:15:53.116Z,15.70
2018-12-14T14:18:21.272Z,16.05
2018-12-14T14:20:49.467Z,12.63
2018-12-14T14:23:17.621Z,14.63
2018-12-14T14:25:53.952Z,19.55
2018-12-14T14:28:22.096Z,14.78
2018-12-14T14:30:50.322Z,17.77
2018-12-14T14:33:18.612Z,18.02
2018-12-14T14:35:46.820Z,18.37
2018-12-14T14:38:14.994Z,14.58
2018-12-14T14:40:43.242Z,16.32
2018-12-14T14:43:11.512Z,15.70
2018-12-14T14:45:39.711Z,14.75
2018-12-14T14:48:07.965Z,16.20
2018-12-14T14:50:36.181Z,15.88
2018-12-14T14:53:04.423Z,16.30
2018-12-14T14:55:32.651Z,17.23
2018-12-14T14:58:00.896Z,13.78
2018-12-14T15:00:31.882Z,15.28
2018-12-14T15:03:00.230Z,15.60
2018-12-14T15:05:28.603Z,16.45
2018-12-14T15:07:56.776Z,13.80
2018-12-14T15:10:34.558Z,14.20
2018-12-14T15:13:18.543Z,14.43
2018-12-14T15:15:46.764Z,14.50
2018-12-14T15:18:15.014Z,14.68
2018-12-14T15:20:43.208Z,13.62
2018-12-14T15:23:11.807Z,13.90
2018-12-14T15:25:46.933Z,15.80
2018-12-14T15:28:27.820Z,14.28
2018-12-14T15:30:55.990Z,14.25
2018-12-14T15:33:24.265Z,14.83
2018-12-14T15:35:52.441Z,15.30
2018-12-14T15:38:20.612Z,14.90
2018-12-14T15:41:00.359Z,13.78
2018-12-14T15:43:28.572Z,14.47
2018-12-14T15:45:56.764Z,15.75
2018-12-14T15:48:24.910Z,13.65
2018-12-14T15:50:53.093Z,13.55
2018-12-14T15:53:21.264Z,18.20
2018-12-14T15:55:49.413Z,15.90
2018-12-14T15:58:17.545Z,12.90
2018-12-14T16:00:45.692Z,15.10
2018-12-14T16:03:13.858Z,17.80
2018-12-14T16:05:42.002Z,14.75
2018-12-14T16:08:10.256Z,14.68
2018-12-14T16:10:38.415Z,12.63
2018-12-14T16:13:06.575Z,17.10
2018-12-14T16:15:34.782Z,16.00
2018-12-14T16:18:02.854Z,13.80
2018-12-14T16:20:31.042Z,16.45
2018-12-14T16:22:59.253Z,14.35
2018-12-14T16:25:27.427Z,14.83
2018-12-14T16:27:55.557Z,15.38
2018-12-14T16:30:23.818Z,13.80
2018-12-14T16:32:51.982Z,16.77
2018-12-14T16:35:20.144Z,16.70
2018-12-14T16:37:48.394Z,15.32
2018-12-14T16:40:16.663Z,16.30
2018-12-14T16:42:44.740Z,16.80
2018-12-14T16:45:12.865Z,14.87
2018-12-14T16:47:41.043Z,15.68
2018-12-14T16:50:09.180Z,16.00
2018-12-14T16:52:37.328Z,14.75
2018-12-14T16:55:06.132Z,15.65
2018-12-14T16:57:34.422Z,15.00
2018-12-14T17:00:02.544Z,20.57
2018-12-14T17:02:30.854Z,17.62
2018-12-14T17:04:58.986Z,17.98
2018-12-14T17:07:27.155Z,17.10
2018-12-14T17:09:55.353Z,15.98
2018-12-14T17:12:23.512Z,16.32
2018-12-14T17:14:51.635Z,15.85
2018-12-14T17:17:19.833Z,16.57
2018-12-14T17:19:48.077Z,14.25
2018-12-14T17:22:16.254Z,13.78
2018-12-14T17:24:44.682Z,16.30
2018-12-14T17:27:12.973Z,16.15
2018-12-14T17:29:41.472Z,18.02
2018-12-14T17:32:09.909Z,16.20
2018-12-14T17:34:38.060Z,14.45
2018-12-14T17:37:06.386Z,17.40
2018-12-14T17:39:34.624Z,18.37
2018-12-14T17:42:02.827Z,18.12
2018-12-14T17:44:31.118Z,15.95
2018-12-14T17:46:59.428Z,16.73
2018-12-14T17:49:27.563Z,17.80
2018-12-14T17:51:55.834Z,17.10
2018-12-14T17:54:24.021Z,18.65
2018-12-14T17:56:52.257Z,17.23
2018-12-14T17:59:20.409Z,16.37
2018-12-14T18:01:48.756Z,18.27
2018-12-14T18:04:17.022Z,17.62
2018-12-14T18:06:45.375Z,18.30
2018-12-14T18:09:13.697Z,18.00
2018-12-14T18:11:42.008Z,17.30
2018-12-14T18:14:10.279Z,16.97
2018-12-14T18:16:38.751Z,18.65
2018-12-14T18:19:07.012Z,19.50
2018-12-14T18:21:35.524Z,18.48
2018-12-14T18:24:03.836Z,18.15
2018-12-14T18:26:32.129Z,18.95
2018-12-14T18:29:00.277Z,17.85
2018-12-14T18:31:28.604Z,17.48
2018-12-14T18:33:56.766Z,20.92
2018-12-14T18:36:24.994Z,17.35
2018-12-14T18:38:53.213Z,17.07
2018-12-14T18:41:21.451Z,16.73
2018-12-14T18:43:49.643Z,15.45
2018-12-14T18:46:17.824Z,20.02
2018-12-14T18:48:46.005Z,19.05
2018-12-14T18:51:14.293Z,20.15
2018-12-14T18:53:46.777Z,20.72
2018-12-14T18:56:14.988Z,18.02
2018-12-14T18:58:43.217Z,19.00
2018-12-14T19:01:11.470Z,21.15
2018-12-14T19:03:39.783Z,18.82
2018-12-14T19:06:07.917Z,19.95
2018-12-14T19:08:36.052Z,22.75
2018-12-14T19:11:04.305Z,20.35
2018-12-14T19:13:32.570Z,20.92
2018-12-14T19:16:00.794Z,18.37
2018-12-14T19:18:29.000Z,19.85
2018-12-14T19:20:57.273Z,18.02
2018-12-14T19:23:25.619Z,17.30
2018-12-14T19:25:53.799Z,20.52
2018-12-14T19:28:22.020Z,20.82
2018-12-14T19:30:50.286Z,18.52
2018-12-14T19:33:18.596Z,21.33
2018-12-14T19:35:46.837Z,20.25
2018-12-14T19:38:15.060Z,21.17
2018-12-14T19:40:43.240Z,22.58
2018-12-14T19:43:11.439Z,18.55
2018-12-14T19:45:39.725Z,24.98
2018-12-14T19:48:07.940Z,21.60
2018-12-14T19:50:36.166Z,20.72
2018-12-14T19:53:04.421Z,24.40
2018-12-14T19:55:32.764Z,23.10
2018-12-14T19:58:01.011Z,24.12
2018-12-14T20:00:29.294Z,19.23
2018-12-14T20:02:57.494Z,19.42
2018-12-14T20:05:25.804Z,18.40
2018-12-14T20:07:54.093Z,18.02
2018-12-14T20:10:22.523Z,16.10
2018-12-14T20:12:51.340Z,20.50
2018-12-14T20:15:19.606Z,20.10
2018-12-14T20:17:47.926Z,17.52
2018-12-14T20:20:16.119Z,16.57
2018-12-14T20:22:44.341Z,17.90
2018-12-14T20:25:12.535Z,18.48
2018-12-14T20:27:40.801Z,17.30
2018-12-14T20:30:09.203Z,18.52
2018-12-14T20:32:37.491Z,16.62
2018-12-14T20:35:06.097Z,18.52
2018-12-14T20:37:35.289Z,18.35
2018-12-14T20:40:03.781Z,18.73
2018-12-14T20:42:32.026Z,20.80
2018-12-14T20:45:00.177Z,16.75
2018-12-14T20:47:28.340Z,17.62
2018-12-14T20:49:56.689Z,16.23
2018-12-14T20:52:24.972Z,16.75
2018-12-14T20:54:54.247Z,18.70
2018-12-14T20:57:22.384Z,19.05
2018-12-14T20:59:50.734Z,19.05
2018-12-14T21:02:19.069Z,18.48
2018-12-14T21:04:47.373Z,17.62
2018-12-14T21:07:15.653Z,18.42
2018-12-14T21:09:43.821Z,21.93
2018-12-14T21:12:12.254Z,17.70
2018-12-14T21:14:40.368Z,16.52
2018-12-14T21:17:08.630Z,16.55
2018-12-14T21:19:36.899Z,16.30
2018-12-14T21:22:07.025Z,20.05
2018-12-14T21:24:35.259Z,17.30
2018-12-14T21:27:03.449Z,18.25
2018-12-14T21:29:31.771Z,18.65
2018-12-14T21:31:59.920Z,18.30
2018-12-14T21:34:28.318Z,18.15
2018-12-14T21:36:56.525Z,18.32
2018-12-14T21:39:24.849Z,18.65
2018-12-14T21:41:54.830Z,19.20
2018-12-14T21:44:23.118Z,17.95
2018-12-14T21:46:51.463Z,20.65
2018-12-14T21:49:19.742Z,19.05
2018-12-14T21:51:48.026Z,19.98
2018-12-14T21:54:16.339Z,17.82
2018-12-14T21:56:44.614Z,20.52
2018-12-14T21:59:12.826Z,21.75
2018-12-14T22:01:40.971Z,21.15
2018-12-14T22:04:09.252Z,19.73
2018-12-14T22:06:37.413Z,18.32
2018-12-14T22:09:07.825Z,20.35
2018-12-14T22:11:36.024Z,19.02
2018-12-14T22:14:04.531Z,18.92
2018-12-14T22:16:39.022Z,19.67
2018-12-14T22:19:03.025Z,19.48
2018-12-14T22:21:31.185Z,21.87
2018-12-14T22:23:59.298Z,22.15
2018-12-14T22:26:27.503Z,18.50
2018-12-14T22:28:55.727Z,20.12
2018-12-14T22:31:23.998Z,21.97
2018-12-14T22:33:52.184Z,17.95
2018-12-14T22:36:20.364Z,21.07
2018-12-14T22:38:48.503Z,16.87
2018-12-14T22:41:16.649Z,18.75
2018-12-14T22:43:44.786Z,19.10
2018-12-14T22:46:12.910Z,20.05
2018-12-14T22:48:41.031Z,18.87
2018-12-14T22:51:09.209Z,20.17
2018-12-14T22:53:37.361Z,20.15
2018-12-14T22:56:05.469Z,20.55
2018-12-14T22:58:33.674Z,16.15
2018-12-14T23:01:01.870Z,21.33
2018-12-14T23:03:30.067Z,18.37
2018-12-14T23:05:58.156Z,19.67
2018-12-14T23:08:26.215Z,19.27
2018-12-14T23:10:54.387Z,22.52
2018-12-14T23:13:22.539Z,19.00
2018-12-14T23:15:50.698Z,20.92
2018-12-14T23:18:18.807Z,17.70
2018-12-14T23:20:46.983Z,18.62
2018-12-14T23:23:15.145Z,19.05
2018-12-14T23:25:43.241Z,22.05
2018-12-14T23:28:11.411Z,22.10
2018-12-14T23:30:39.593Z,18.87
2018-12-14T23:33:07.726Z,19.65
2018-12-14T23:35:35.893Z,20.15
2018-12-14T23:38:04.004Z,21.40
2018-12-14T23:40:32.128Z,19.12
2018-12-14T23:43:00.219Z,19.55
2018-12-14T23:45:28.331Z,21.60
2018-12-14T23:47:56.455Z,18.73
2018-12-14T23:50:24.619Z,18.02
2018-12-14T23:52:52.741Z,25.80
2018-12-14T23:55:20.808Z,19.52
2018-12-14T23:57:48.912Z,22.48
